sensor_id;sensor_type;location;lat;lon;timestamp;temperature;humidity
6118;DHT22;3089;48.202;11.510;2023-06-10T00:00:01;20.30;99.90
6118;DHT22;3089;48.202;11.510;2023-06-10T00:02:32;20.20;99.90
6118;DHT22;3089;48.202;11.510;2023-06-10T00:05:00;20.20;99.90
6118;DHT22;3089;48.202;11.510;2023-06-10T00:07:28;20.10;99.90
6118;DHT22;3089;48.202;11.510;2023-06-10T00:09:55;20.10;99.90
6118;DHT22;3089;48.202;11.510;2023-06-10T00:12:23;20.00;99.90
6118;DHT22;3089;48.202;11.510;2023-06-10T00:14:53;20.00;99.90
6118;DHT22;3089;48.202;11.510;2023-06-10T00:17:21;20.00;99.90
6118;DHT22;3089;48.202;11.510;2023-06-10T00:19:50;20.00;99.90
6118;DHT22;3089;48.202;11.510;2023-06-10T00:22:19;19.90;99.90
6118;DHT22;3089;48.202;11.510;2023-06-10T00:24:48;19.80;99.90
6118;DHT22;3089;48.202;11.510;2023-06-10T00:27:17;19.70;99.90
6118;DHT22;3089;48.202;11.510;2023-06-10T00:29:45;19.80;99.90
6118;DHT22;3089;48.202;11.510;2023-06-10T00:32:15;19.80;99.90
6118;DHT22;3089;48.202;11.510;2023-06-10T00:34:42;19.70;99.90
6118;DHT22;3089;48.202;11.510;2023-06-10T00:37:10;19.70;99.90
6118;DHT22;3089;48.202;11.510;2023-06-10T00:39:38;19.70;99.90
6118;DHT22;3089;48.202;11.510;2023-06-10T00:42:07;19.60;99.90
6118;DHT22;3089;48.202;11.510;2023-06-10T00:44:37;19.70;99.90
6118;DHT22;3089;48.202;11.510;2023-06-10T00:47:06;19.70;99.90
6118;DHT22;3089;48.202;11.510;2023-06-10T00:49:35;19.40;99.90
6118;DHT22;3089;48.202;11.510;2023-06-10T00:52:05;19.60;99.90
6118;DHT22;3089;48.202;11.510;2023-06-10T00:54:33;19.40;99.90
6118;DHT22;3089;48.202;11.510;2023-06-10T00:57:01;19.20;99.90
6118;DHT22;3089;48.202;11.510;2023-06-10T00:59:30;19.10;99.90
6118;DHT22;3089;48.202;11.510;2023-06-10T01:01:59;19.10;99.90
6118;DHT22;3089;48.202;11.510;2023-06-10T01:04:27;19.30;99.90
6118;DHT22;3089;48.202;11.510;2023-06-10T01:07:05;19.30;99.90
6118;DHT22;3089;48.202;11.510;2023-06-10T01:09:41;19.30;99.90
6118;DHT22;3089;48.202;11.510;2023-06-10T01:12:13;19.00;99.90
6118;DHT22;3089;48.202;11.510;2023-06-10T01:14:44;19.20;99.90
6118;DHT22;3089;48.202;11.510;2023-06-10T01:17:13;18.60;99.90
6118;DHT22;3089;48.202;11.510;2023-06-10T01:19:43;19.00;99.90
6118;DHT22;3089;48.202;11.510;2023-06-10T01:22:13;19.30;99.90
6118;DHT22;3089;48.202;11.510;2023-06-10T01:24:43;19.20;99.90
6118;DHT22;3089;48.202;11.510;2023-06-10T01:27:13;19.30;99.90
6118;DHT22;3089;48.202;11.510;2023-06-10T01:29:46;19.20;99.90
6118;DHT22;3089;48.202;11.510;2023-06-10T01:32:18;19.20;99.90
6118;DHT22;3089;48.202;11.510;2023-06-10T01:34:48;19.20;99.90
6118;DHT22;3089;48.202;11.510;2023-06-10T01:37:19;19.20;99.90
6118;DHT22;3089;48.202;11.510;2023-06-10T01:39:49;19.20;99.90
6118;DHT22;3089;48.202;11.510;2023-06-10T01:42:17;19.20;99.90
6118;DHT22;3089;48.202;11.510;2023-06-10T01:44:45;19.10;99.90
6118;DHT22;3089;48.202;11.510;2023-06-10T01:47:13;19.00;99.90
6118;DHT22;3089;48.202;11.510;2023-06-10T01:49:41;19.10;99.90
6118;DHT22;3089;48.202;11.510;2023-06-10T01:52:09;19.10;99.90
6118;DHT22;3089;48.202;11.510;2023-06-10T01:54:38;19.10;99.90
6118;DHT22;3089;48.202;11.510;2023-06-10T01:57:06;19.00;99.90
6118;DHT22;3089;48.202;11.510;2023-06-10T01:59:34;19.00;99.90
6118;DHT22;3089;48.202;11.510;2023-06-10T02:02:03;19.00;99.90
6118;DHT22;3089;48.202;11.510;2023-06-10T02:04:31;19.00;99.90
6118;DHT22;3089;48.202;11.510;2023-06-10T02:06:59;18.90;99.90
6118;DHT22;3089;48.202;11.510;2023-06-10T02:09:30;18.80;99.90
6118;DHT22;3089;48.202;11.510;2023-06-10T02:12:04;18.80;99.90
6118;DHT22;3089;48.202;11.510;2023-06-10T02:14:33;18.70;99.90
6118;DHT22;3089;48.202;11.510;2023-06-10T02:17:01;18.70;99.90
6118;DHT22;3089;48.202;11.510;2023-06-10T02:19:29;18.80;99.90
6118;DHT22;3089;48.202;11.510;2023-06-10T02:21:57;18.80;99.90
6118;DHT22;3089;48.202;11.510;2023-06-10T02:24:25;18.80;99.90
6118;DHT22;3089;48.202;11.510;2023-06-10T02:26:53;18.80;99.90
6118;DHT22;3089;48.202;11.510;2023-06-10T02:29:23;18.70;99.90
6118;DHT22;3089;48.202;11.510;2023-06-10T02:31:51;18.60;99.90
6118;DHT22;3089;48.202;11.510;2023-06-10T02:34:19;18.60;99.90
6118;DHT22;3089;48.202;11.510;2023-06-10T02:36:47;18.60;99.90
6118;DHT22;3089;48.202;11.510;2023-06-10T02:39:17;18.60;99.90
6118;DHT22;3089;48.202;11.510;2023-06-10T02:41:45;18.60;99.90
6118;DHT22;3089;48.202;11.510;2023-06-10T02:44:13;18.50;99.90
6118;DHT22;3089;48.202;11.510;2023-06-10T02:46:43;18.50;99.90
6118;DHT22;3089;48.202;11.510;2023-06-10T02:49:11;18.50;99.90
6118;DHT22;3089;48.202;11.510;2023-06-10T02:51:39;18.40;99.90
6118;DHT22;3089;48.202;11.510;2023-06-10T02:54:07;18.40;99.90
6118;DHT22;3089;48.202;11.510;2023-06-10T02:56:35;18.40;99.90
6118;DHT22;3089;48.202;11.510;2023-06-10T02:59:08;18.30;99.90
6118;DHT22;3089;48.202;11.510;2023-06-10T03:01:36;18.30;99.90
6118;DHT22;3089;48.202;11.510;2023-06-10T03:04:07;18.30;99.90
6118;DHT22;3089;48.202;11.510;2023-06-10T03:06:35;18.20;99.90
6118;DHT22;3089;48.202;11.510;2023-06-10T03:09:05;18.20;99.90
6118;DHT22;3089;48.202;11.510;2023-06-10T03:11:34;18.20;99.90
6118;DHT22;3089;48.202;11.510;2023-06-10T03:14:02;18.20;99.90
6118;DHT22;3089;48.202;11.510;2023-06-10T03:16:29;18.20;99.90
6118;DHT22;3089;48.202;11.510;2023-06-10T03:18:59;18.20;99.90
6118;DHT22;3089;48.202;11.510;2023-06-10T03:21:28;18.20;99.90
6118;DHT22;3089;48.202;11.510;2023-06-10T03:23:56;18.10;99.90
6118;DHT22;3089;48.202;11.510;2023-06-10T03:26:25;18.20;99.90
6118;DHT22;3089;48.202;11.510;2023-06-10T03:28:54;18.10;99.90
6118;DHT22;3089;48.202;11.510;2023-06-10T03:31:21;18.10;99.90
6118;DHT22;3089;48.202;11.510;2023-06-10T03:33:51;18.10;99.90
6118;DHT22;3089;48.202;11.510;2023-06-10T03:36:19;18.00;99.90
6118;DHT22;3089;48.202;11.510;2023-06-10T03:38:48;18.10;99.90
6118;DHT22;3089;48.202;11.510;2023-06-10T03:41:18;18.00;99.90
6118;DHT22;3089;48.202;11.510;2023-06-10T03:43:48;18.00;99.90
6118;DHT22;3089;48.202;11.510;2023-06-10T03:46:16;18.10;99.90
6118;DHT22;3089;48.202;11.510;2023-06-10T03:48:44;18.00;99.90
6118;DHT22;3089;48.202;11.510;2023-06-10T03:51:12;18.00;99.90
6118;DHT22;3089;48.202;11.510;2023-06-10T03:53:40;18.00;99.90
6118;DHT22;3089;48.202;11.510;2023-06-10T03:56:09;18.00;99.90
6118;DHT22;3089;48.202;11.510;2023-06-10T03:58:37;18.00;99.90
6118;DHT22;3089;48.202;11.510;2023-06-10T04:01:05;18.00;99.90
6118;DHT22;3089;48.202;11.510;2023-06-10T04:03:34;17.90;99.90
6118;DHT22;3089;48.202;11.510;2023-06-10T04:06:02;17.90;99.90
6118;DHT22;3089;48.202;11.510;2023-06-10T04:08:31;17.90;99.90
6118;DHT22;3089;48.202;11.510;2023-06-10T04:10:59;17.90;99.90
6118;DHT22;3089;48.202;11.510;2023-06-10T04:13:28;17.90;99.90
6118;DHT22;3089;48.202;11.510;2023-06-10T04:15:56;17.90;99.90
6118;DHT22;3089;48.202;11.510;2023-06-10T04:18:24;17.90;99.90
6118;DHT22;3089;48.202;11.510;2023-06-10T04:20:52;17.90;99.90
6118;DHT22;3089;48.202;11.510;2023-06-10T04:23:20;17.90;99.90
6118;DHT22;3089;48.202;11.510;2023-06-10T04:25:48;17.90;99.90
6118;DHT22;3089;48.202;11.510;2023-06-10T04:28:16;17.90;99.90
6118;DHT22;3089;48.202;11.510;2023-06-10T04:30:45;17.80;99.90
6118;DHT22;3089;48.202;11.510;2023-06-10T04:33:13;17.90;99.90
6118;DHT22;3089;48.202;11.510;2023-06-10T04:35:41;17.50;99.90
6118;DHT22;3089;48.202;11.510;2023-06-10T04:38:09;17.00;99.90
6118;DHT22;3089;48.202;11.510;2023-06-10T04:40:37;16.90;99.90
6118;DHT22;3089;48.202;11.510;2023-06-10T04:43:05;16.80;99.90
6118;DHT22;3089;48.202;11.510;2023-06-10T04:45:32;17.20;99.90
6118;DHT22;3089;48.202;11.510;2023-06-10T04:48:02;17.30;99.90
6118;DHT22;3089;48.202;11.510;2023-06-10T04:50:30;18.00;99.90
6118;DHT22;3089;48.202;11.510;2023-06-10T04:52:59;19.80;99.90
6118;DHT22;3089;48.202;11.510;2023-06-10T04:55:27;20.60;99.90
6118;DHT22;3089;48.202;11.510;2023-06-10T04:57:55;20.30;99.90
6118;DHT22;3089;48.202;11.510;2023-06-10T05:00:24;20.70;99.90
6118;DHT22;3089;48.202;11.510;2023-06-10T05:02:52;21.30;99.90
6118;DHT22;3089;48.202;11.510;2023-06-10T05:05:21;21.70;99.90
6118;DHT22;3089;48.202;11.510;2023-06-10T05:07:49;21.80;99.90
6118;DHT22;3089;48.202;11.510;2023-06-10T05:10:17;21.90;99.90
6118;DHT22;3089;48.202;11.510;2023-06-10T05:12:45;21.60;99.90
6118;DHT22;3089;48.202;11.510;2023-06-10T05:15:13;21.70;99.90
6118;DHT22;3089;48.202;11.510;2023-06-10T05:17:41;21.70;99.90
6118;DHT22;3089;48.202;11.510;2023-06-10T05:20:10;21.50;99.90
6118;DHT22;3089;48.202;11.510;2023-06-10T05:22:39;21.10;99.90
6118;DHT22;3089;48.202;11.510;2023-06-10T05:25:07;20.80;99.90
6118;DHT22;3089;48.202;11.510;2023-06-10T05:27:36;21.10;99.90
6118;DHT22;3089;48.202;11.510;2023-06-10T05:30:05;21.20;99.90
6118;DHT22;3089;48.202;11.510;2023-06-10T05:32:34;21.30;99.90
6118;DHT22;3089;48.202;11.510;2023-06-10T05:35:02;22.30;99.90
6118;DHT22;3089;48.202;11.510;2023-06-10T05:37:30;23.20;99.90
6118;DHT22;3089;48.202;11.510;2023-06-10T05:39:59;23.20;99.90
6118;DHT22;3089;48.202;11.510;2023-06-10T05:42:27;22.70;99.90
6118;DHT22;3089;48.202;11.510;2023-06-10T05:44:55;22.90;99.90
6118;DHT22;3089;48.202;11.510;2023-06-10T05:47:23;23.10;99.90
6118;DHT22;3089;48.202;11.510;2023-06-10T05:49:51;23.70;99.90
6118;DHT22;3089;48.202;11.510;2023-06-10T05:52:19;24.10;99.90
6118;DHT22;3089;48.202;11.510;2023-06-10T05:54:47;24.00;99.90
6118;DHT22;3089;48.202;11.510;2023-06-10T05:57:16;24.60;99.90
6118;DHT22;3089;48.202;11.510;2023-06-10T05:59:44;23.70;99.90
6118;DHT22;3089;48.202;11.510;2023-06-10T06:02:12;24.80;99.90
6118;DHT22;3089;48.202;11.510;2023-06-10T06:04:39;24.70;99.90
6118;DHT22;3089;48.202;11.510;2023-06-10T06:07:07;25.60;99.90
6118;DHT22;3089;48.202;11.510;2023-06-10T06:09:35;24.70;99.90
6118;DHT22;3089;48.202;11.510;2023-06-10T06:12:04;25.50;99.90
6118;DHT22;3089;48.202;11.510;2023-06-10T06:14:37;25.00;99.90
6118;DHT22;3089;48.202;11.510;2023-06-10T06:17:05;25.00;99.90
6118;DHT22;3089;48.202;11.510;2023-06-10T06:19:33;25.80;99.90
6118;DHT22;3089;48.202;11.510;2023-06-10T06:22:01;24.60;99.90
6118;DHT22;3089;48.202;11.510;2023-06-10T06:24:29;24.00;99.90
6118;DHT22;3089;48.202;11.510;2023-06-10T06:26:57;25.50;99.90
6118;DHT22;3089;48.202;11.510;2023-06-10T06:29:25;24.20;99.90
6118;DHT22;3089;48.202;11.510;2023-06-10T06:31:55;24.50;99.90
6118;DHT22;3089;48.202;11.510;2023-06-10T06:34:23;24.60;99.90
6118;DHT22;3089;48.202;11.510;2023-06-10T06:36:51;24.80;99.90
6118;DHT22;3089;48.202;11.510;2023-06-10T06:39:19;24.80;99.90
6118;DHT22;3089;48.202;11.510;2023-06-10T06:41:46;25.70;99.90
6118;DHT22;3089;48.202;11.510;2023-06-10T06:44:14;25.40;99.90
6118;DHT22;3089;48.202;11.510;2023-06-10T06:46:42;24.20;99.90
6118;DHT22;3089;48.202;11.510;2023-06-10T06:49:11;25.30;99.90
6118;DHT22;3089;48.202;11.510;2023-06-10T06:51:39;25.00;99.90
6118;DHT22;3089;48.202;11.510;2023-06-10T06:54:07;26.20;99.90
6118;DHT22;3089;48.202;11.510;2023-06-10T06:56:35;26.80;99.90
6118;DHT22;3089;48.202;11.510;2023-06-10T06:59:03;26.20;99.90
6118;DHT22;3089;48.202;11.510;2023-06-10T07:01:33;24.80;99.90
6118;DHT22;3089;48.202;11.510;2023-06-10T07:04:02;25.60;99.90
6118;DHT22;3089;48.202;11.510;2023-06-10T07:06:31;27.20;99.90
6118;DHT22;3089;48.202;11.510;2023-06-10T07:09:02;25.50;99.90
6118;DHT22;3089;48.202;11.510;2023-06-10T07:11:30;27.60;99.90
6118;DHT22;3089;48.202;11.510;2023-06-10T07:13:58;26.60;99.90
6118;DHT22;3089;48.202;11.510;2023-06-10T07:16:26;27.60;99.90
6118;DHT22;3089;48.202;11.510;2023-06-10T07:18:54;28.30;99.90
6118;DHT22;3089;48.202;11.510;2023-06-10T07:21:22;28.20;99.90
6118;DHT22;3089;48.202;11.510;2023-06-10T07:23:51;29.30;98.00
6118;DHT22;3089;48.202;11.510;2023-06-10T07:26:22;28.80;99.10
6118;DHT22;3089;48.202;11.510;2023-06-10T07:28:50;28.50;99.20
6118;DHT22;3089;48.202;11.510;2023-06-10T07:31:17;28.00;99.40
6118;DHT22;3089;48.202;11.510;2023-06-10T07:33:46;27.80;99.90
6118;DHT22;3089;48.202;11.510;2023-06-10T07:36:14;27.60;99.90
6118;DHT22;3089;48.202;11.510;2023-06-10T07:38:42;26.50;99.90
6118;DHT22;3089;48.202;11.510;2023-06-10T07:41:11;26.10;99.90
6118;DHT22;3089;48.202;11.510;2023-06-10T07:43:39;27.70;99.30
6118;DHT22;3089;48.202;11.510;2023-06-10T07:46:07;26.40;99.90
6118;DHT22;3089;48.202;11.510;2023-06-10T07:48:35;24.80;99.90
6118;DHT22;3089;48.202;11.510;2023-06-10T07:51:03;23.70;99.90
6118;DHT22;3089;48.202;11.510;2023-06-10T07:53:31;24.10;99.90
6118;DHT22;3089;48.202;11.510;2023-06-10T07:55:59;24.30;99.90
6118;DHT22;3089;48.202;11.510;2023-06-10T07:58:28;24.40;99.90
6118;DHT22;3089;48.202;11.510;2023-06-10T08:00:56;24.40;99.90
6118;DHT22;3089;48.202;11.510;2023-06-10T08:03:24;23.40;99.90
6118;DHT22;3089;48.202;11.510;2023-06-10T08:05:52;22.90;99.90
6118;DHT22;3089;48.202;11.510;2023-06-10T08:08:20;22.80;99.90
6118;DHT22;3089;48.202;11.510;2023-06-10T08:10:47;22.60;99.90
6118;DHT22;3089;48.202;11.510;2023-06-10T08:13:15;22.90;99.90
6118;DHT22;3089;48.202;11.510;2023-06-10T08:15:45;23.40;99.90
6118;DHT22;3089;48.202;11.510;2023-06-10T08:18:14;23.20;99.90
6118;DHT22;3089;48.202;11.510;2023-06-10T08:20:42;22.80;99.90
6118;DHT22;3089;48.202;11.510;2023-06-10T08:23:10;22.50;99.90
6118;DHT22;3089;48.202;11.510;2023-06-10T08:25:38;22.20;99.90
6118;DHT22;3089;48.202;11.510;2023-06-10T08:28:06;23.40;99.90
6118;DHT22;3089;48.202;11.510;2023-06-10T08:30:33;23.60;99.90
6118;DHT22;3089;48.202;11.510;2023-06-10T08:33:03;24.00;99.90
6118;DHT22;3089;48.202;11.510;2023-06-10T08:35:31;24.40;99.90
6118;DHT22;3089;48.202;11.510;2023-06-10T08:37:59;23.80;99.90
6118;DHT22;3089;48.202;11.510;2023-06-10T08:40:27;23.20;99.90
6118;DHT22;3089;48.202;11.510;2023-06-10T08:43:00;23.50;99.90
6118;DHT22;3089;48.202;11.510;2023-06-10T08:45:31;23.20;99.90
6118;DHT22;3089;48.202;11.510;2023-06-10T08:47:59;22.70;99.90
6118;DHT22;3089;48.202;11.510;2023-06-10T08:50:31;22.80;99.90
6118;DHT22;3089;48.202;11.510;2023-06-10T08:52:59;24.90;99.90
6118;DHT22;3089;48.202;11.510;2023-06-10T08:55:32;25.90;99.90
6118;DHT22;3089;48.202;11.510;2023-06-10T08:58:00;26.70;99.90
6118;DHT22;3089;48.202;11.510;2023-06-10T09:00:29;25.50;99.90
6118;DHT22;3089;48.202;11.510;2023-06-10T09:02:58;26.30;99.90
6118;DHT22;3089;48.202;11.510;2023-06-10T09:05:33;25.90;99.90
6118;DHT22;3089;48.202;11.510;2023-06-10T09:08:01;24.80;99.90
6118;DHT22;3089;48.202;11.510;2023-06-10T09:10:29;25.10;99.90
6118;DHT22;3089;48.202;11.510;2023-06-10T09:12:57;24.30;99.90
6118;DHT22;3089;48.202;11.510;2023-06-10T09:15:25;25.10;99.90
6118;DHT22;3089;48.202;11.510;2023-06-10T09:17:54;25.70;99.90
6118;DHT22;3089;48.202;11.510;2023-06-10T09:20:23;26.50;99.90
6118;DHT22;3089;48.202;11.510;2023-06-10T09:22:52;24.90;99.90
6118;DHT22;3089;48.202;11.510;2023-06-10T09:25:34;24.90;99.90
6118;DHT22;3089;48.202;11.510;2023-06-10T09:28:03;24.30;99.90
6118;DHT22;3089;48.202;11.510;2023-06-10T09:30:32;23.80;99.90
6118;DHT22;3089;48.202;11.510;2023-06-10T09:33:02;25.10;99.90
6118;DHT22;3089;48.202;11.510;2023-06-10T09:35:31;25.50;99.90
6118;DHT22;3089;48.202;11.510;2023-06-10T09:38:00;24.00;99.90
6118;DHT22;3089;48.202;11.510;2023-06-10T09:40:29;23.30;99.90
6118;DHT22;3089;48.202;11.510;2023-06-10T09:43:00;24.50;99.90
6118;DHT22;3089;48.202;11.510;2023-06-10T09:45:30;25.80;99.90
6118;DHT22;3089;48.202;11.510;2023-06-10T09:47:58;27.00;99.90
6118;DHT22;3089;48.202;11.510;2023-06-10T09:50:26;27.00;99.90
6118;DHT22;3089;48.202;11.510;2023-06-10T09:52:54;27.00;99.90
6118;DHT22;3089;48.202;11.510;2023-06-10T09:55:24;26.70;99.90
6118;DHT22;3089;48.202;11.510;2023-06-10T09:57:53;26.90;99.90
6118;DHT22;3089;48.202;11.510;2023-06-10T10:00:22;26.20;99.90
6118;DHT22;3089;48.202;11.510;2023-06-10T10:02:53;26.70;99.90
6118;DHT22;3089;48.202;11.510;2023-06-10T10:05:22;26.40;99.90
6118;DHT22;3089;48.202;11.510;2023-06-10T10:07:51;26.40;99.90
6118;DHT22;3089;48.202;11.510;2023-06-10T10:10:20;26.20;99.90
6118;DHT22;3089;48.202;11.510;2023-06-10T10:12:53;26.00;99.90
6118;DHT22;3089;48.202;11.510;2023-06-10T10:15:23;26.40;99.90
6118;DHT22;3089;48.202;11.510;2023-06-10T10:17:54;26.10;99.90
6118;DHT22;3089;48.202;11.510;2023-06-10T10:20:27;25.80;99.90
6118;DHT22;3089;48.202;11.510;2023-06-10T10:22:57;26.10;99.90
6118;DHT22;3089;48.202;11.510;2023-06-10T10:25:28;24.70;99.90
6118;DHT22;3089;48.202;11.510;2023-06-10T10:28:01;25.50;99.90
6118;DHT22;3089;48.202;11.510;2023-06-10T10:30:31;25.70;99.90
6118;DHT22;3089;48.202;11.510;2023-06-10T10:33:05;25.40;99.90
6118;DHT22;3089;48.202;11.510;2023-06-10T10:35:36;26.40;99.90
6118;DHT22;3089;48.202;11.510;2023-06-10T10:38:05;26.30;99.90
6118;DHT22;3089;48.202;11.510;2023-06-10T10:40:34;26.70;99.90
6118;DHT22;3089;48.202;11.510;2023-06-10T10:43:04;25.50;99.90
6118;DHT22;3089;48.202;11.510;2023-06-10T10:45:33;25.10;99.90
6118;DHT22;3089;48.202;11.510;2023-06-10T10:48:06;25.90;99.90
6118;DHT22;3089;48.202;11.510;2023-06-10T10:50:38;26.30;99.90
6118;DHT22;3089;48.202;11.510;2023-06-10T10:53:07;26.20;99.90
6118;DHT22;3089;48.202;11.510;2023-06-10T10:55:35;25.90;99.90
6118;DHT22;3089;48.202;11.510;2023-06-10T10:58:05;25.60;99.90
6118;DHT22;3089;48.202;11.510;2023-06-10T11:00:34;25.50;99.90
6118;DHT22;3089;48.202;11.510;2023-06-10T11:03:06;24.80;99.90
6118;DHT22;3089;48.202;11.510;2023-06-10T11:05:39;24.90;99.90
6118;DHT22;3089;48.202;11.510;2023-06-10T11:08:08;24.20;99.90
6118;DHT22;3089;48.202;11.510;2023-06-10T11:10:38;23.80;99.90
6118;DHT22;3089;48.202;11.510;2023-06-10T11:13:09;24.40;99.90
6118;DHT22;3089;48.202;11.510;2023-06-10T11:15:43;25.10;99.90
6118;DHT22;3089;48.202;11.510;2023-06-10T11:18:23;25.90;99.90
6118;DHT22;3089;48.202;11.510;2023-06-10T11:20:56;25.90;99.90
6118;DHT22;3089;48.202;11.510;2023-06-10T11:23:40;26.20;99.90
6118;DHT22;3089;48.202;11.510;2023-06-10T11:26:19;26.50;99.90
6118;DHT22;3089;48.202;11.510;2023-06-10T11:29:08;27.00;99.90
6118;DHT22;3089;48.202;11.510;2023-06-10T11:31:42;26.60;99.90
6118;DHT22;3089;48.202;11.510;2023-06-10T11:34:10;25.10;99.90
6118;DHT22;3089;48.202;11.510;2023-06-10T11:36:41;25.60;99.90
6118;DHT22;3089;48.202;11.510;2023-06-10T11:39:11;26.40;99.90
6118;DHT22;3089;48.202;11.510;2023-06-10T11:41:40;27.00;99.90
6118;DHT22;3089;48.202;11.510;2023-06-10T11:44:10;26.80;99.90
6118;DHT22;3089;48.202;11.510;2023-06-10T11:46:40;26.30;99.90
6118;DHT22;3089;48.202;11.510;2023-06-10T11:49:09;26.10;99.90
6118;DHT22;3089;48.202;11.510;2023-06-10T11:51:39;25.90;99.90
6118;DHT22;3089;48.202;11.510;2023-06-10T11:54:11;25.70;99.90
6118;DHT22;3089;48.202;11.510;2023-06-10T11:56:39;25.80;99.90
6118;DHT22;3089;48.202;11.510;2023-06-10T11:59:08;25.50;99.90
6118;DHT22;3089;48.202;11.510;2023-06-10T12:01:41;26.40;99.90
6118;DHT22;3089;48.202;11.510;2023-06-10T12:04:11;26.50;99.90
6118;DHT22;3089;48.202;11.510;2023-06-10T12:06:41;27.00;99.90
6118;DHT22;3089;48.202;11.510;2023-06-10T12:09:17;26.50;99.90
6118;DHT22;3089;48.202;11.510;2023-06-10T12:11:52;26.80;99.90
6118;DHT22;3089;48.202;11.510;2023-06-10T12:14:54;25.90;99.90
6118;DHT22;3089;48.202;11.510;2023-06-10T12:17:34;25.30;99.90
6118;DHT22;3089;48.202;11.510;2023-06-10T12:20:05;26.00;99.90
6118;DHT22;3089;48.202;11.510;2023-06-10T12:22:37;25.50;99.90
6118;DHT22;3089;48.202;11.510;2023-06-10T12:25:06;25.50;99.90
6118;DHT22;3089;48.202;11.510;2023-06-10T12:27:36;25.70;99.90
6118;DHT22;3089;48.202;11.510;2023-06-10T12:30:06;26.10;99.90
6118;DHT22;3089;48.202;11.510;2023-06-10T12:32:39;25.10;98.80
6118;DHT22;3089;48.202;11.510;2023-06-10T12:35:09;25.10;99.90
6118;DHT22;3089;48.202;11.510;2023-06-10T12:37:38;25.60;99.90
6118;DHT22;3089;48.202;11.510;2023-06-10T12:40:09;25.60;99.90
6118;DHT22;3089;48.202;11.510;2023-06-10T12:42:38;26.30;99.60
6118;DHT22;3089;48.202;11.510;2023-06-10T12:45:08;26.50;99.90
6118;DHT22;3089;48.202;11.510;2023-06-10T12:47:37;27.20;99.90
6118;DHT22;3089;48.202;11.510;2023-06-10T12:50:07;27.10;99.90
6118;DHT22;3089;48.202;11.510;2023-06-10T12:52:36;26.10;99.90
6118;DHT22;3089;48.202;11.510;2023-06-10T12:55:04;26.80;99.90
6118;DHT22;3089;48.202;11.510;2023-06-10T12:57:33;27.20;99.90
6118;DHT22;3089;48.202;11.510;2023-06-10T13:00:01;27.70;99.90
6118;DHT22;3089;48.202;11.510;2023-06-10T13:02:36;27.10;99.90
6118;DHT22;3089;48.202;11.510;2023-06-10T13:05:04;27.40;99.90
6118;DHT22;3089;48.202;11.510;2023-06-10T13:07:32;25.90;99.90
6118;DHT22;3089;48.202;11.510;2023-06-10T13:10:00;25.90;99.90
6118;DHT22;3089;48.202;11.510;2023-06-10T13:12:28;25.60;99.90
6118;DHT22;3089;48.202;11.510;2023-06-10T13:15:13;24.70;99.90
6118;DHT22;3089;48.202;11.510;2023-06-10T13:17:43;25.00;99.90
6118;DHT22;3089;48.202;11.510;2023-06-10T13:20:12;25.30;99.90
6118;DHT22;3089;48.202;11.510;2023-06-10T13:22:40;25.40;99.90
6118;DHT22;3089;48.202;11.510;2023-06-10T13:25:09;24.20;99.90
6118;DHT22;3089;48.202;11.510;2023-06-10T13:27:38;24.40;99.90
6118;DHT22;3089;48.202;11.510;2023-06-10T13:30:10;25.10;99.90
6118;DHT22;3089;48.202;11.510;2023-06-10T13:32:38;26.00;99.90
6118;DHT22;3089;48.202;11.510;2023-06-10T13:35:08;26.00;99.90
6118;DHT22;3089;48.202;11.510;2023-06-10T13:37:37;26.80;99.90
6118;DHT22;3089;48.202;11.510;2023-06-10T13:40:06;26.10;99.90
6118;DHT22;3089;48.202;11.510;2023-06-10T13:42:34;25.90;99.90
6118;DHT22;3089;48.202;11.510;2023-06-10T13:45:04;26.70;99.90
6118;DHT22;3089;48.202;11.510;2023-06-10T13:47:32;26.70;99.90
6118;DHT22;3089;48.202;11.510;2023-06-10T13:50:00;24.50;99.90
6118;DHT22;3089;48.202;11.510;2023-06-10T13:52:30;25.20;99.90
6118;DHT22;3089;48.202;11.510;2023-06-10T13:54:58;26.10;99.90
6118;DHT22;3089;48.202;11.510;2023-06-10T13:57:26;25.50;99.90
6118;DHT22;3089;48.202;11.510;2023-06-10T13:59:54;24.80;99.90
6118;DHT22;3089;48.202;11.510;2023-06-10T14:02:22;25.00;99.90
6118;DHT22;3089;48.202;11.510;2023-06-10T14:04:50;26.10;99.90
6118;DHT22;3089;48.202;11.510;2023-06-10T14:07:18;26.00;99.90
6118;DHT22;3089;48.202;11.510;2023-06-10T14:09:47;25.90;99.90
6118;DHT22;3089;48.202;11.510;2023-06-10T14:12:15;25.50;99.90
6118;DHT22;3089;48.202;11.510;2023-06-10T14:14:43;25.70;99.90
6118;DHT22;3089;48.202;11.510;2023-06-10T14:17:11;25.60;99.90
6118;DHT22;3089;48.202;11.510;2023-06-10T14:19:39;25.30;99.90
6118;DHT22;3089;48.202;11.510;2023-06-10T14:22:07;26.10;99.90
6118;DHT22;3089;48.202;11.510;2023-06-10T14:24:35;26.50;99.90
6118;DHT22;3089;48.202;11.510;2023-06-10T14:27:06;25.80;99.90
6118;DHT22;3089;48.202;11.510;2023-06-10T14:29:34;25.10;99.90
6118;DHT22;3089;48.202;11.510;2023-06-10T14:32:02;24.30;99.90
6118;DHT22;3089;48.202;11.510;2023-06-10T14:34:35;25.00;99.90
6118;DHT22;3089;48.202;11.510;2023-06-10T14:37:03;26.10;99.90
6118;DHT22;3089;48.202;11.510;2023-06-10T14:39:34;26.30;99.90
6118;DHT22;3089;48.202;11.510;2023-06-10T14:42:02;26.00;99.90
6118;DHT22;3089;48.202;11.510;2023-06-10T14:44:31;25.70;99.90
6118;DHT22;3089;48.202;11.510;2023-06-10T14:46:58;25.10;99.90
6118;DHT22;3089;48.202;11.510;2023-06-10T14:49:26;25.10;99.90
6118;DHT22;3089;48.202;11.510;2023-06-10T14:51:54;24.60;99.90
6118;DHT22;3089;48.202;11.510;2023-06-10T14:54:22;24.40;99.90
6118;DHT22;3089;48.202;11.510;2023-06-10T14:56:50;24.90;99.50
6118;DHT22;3089;48.202;11.510;2023-06-10T14:59:18;24.80;98.40
6118;DHT22;3089;48.202;11.510;2023-06-10T15:01:47;25.00;99.60
6118;DHT22;3089;48.202;11.510;2023-06-10T15:04:15;25.50;99.90
6118;DHT22;3089;48.202;11.510;2023-06-10T15:06:46;24.80;98.10
6118;DHT22;3089;48.202;11.510;2023-06-10T15:09:15;25.20;99.90
6118;DHT22;3089;48.202;11.510;2023-06-10T15:11:43;24.70;98.50
6118;DHT22;3089;48.202;11.510;2023-06-10T15:14:12;25.30;99.90
6118;DHT22;3089;48.202;11.510;2023-06-10T15:16:39;25.60;98.60
6118;DHT22;3089;48.202;11.510;2023-06-10T15:19:09;25.90;99.90
6118;DHT22;3089;48.202;11.510;2023-06-10T15:21:36;25.90;99.90
6118;DHT22;3089;48.202;11.510;2023-06-10T15:24:05;25.90;99.90
6118;DHT22;3089;48.202;11.510;2023-06-10T15:26:33;25.50;99.90
6118;DHT22;3089;48.202;11.510;2023-06-10T15:29:02;25.30;99.90
6118;DHT22;3089;48.202;11.510;2023-06-10T15:31:31;25.30;99.90
6118;DHT22;3089;48.202;11.510;2023-06-10T15:33:59;25.60;99.90
6118;DHT22;3089;48.202;11.510;2023-06-10T15:36:28;25.20;99.90
6118;DHT22;3089;48.202;11.510;2023-06-10T15:39:01;25.00;99.60
6118;DHT22;3089;48.202;11.510;2023-06-10T15:41:29;25.30;99.10
6118;DHT22;3089;48.202;11.510;2023-06-10T15:43:58;25.00;99.90
6118;DHT22;3089;48.202;11.510;2023-06-10T15:46:26;24.70;99.90
6118;DHT22;3089;48.202;11.510;2023-06-10T15:48:55;25.00;99.90
6118;DHT22;3089;48.202;11.510;2023-06-10T15:51:23;25.20;99.20
6118;DHT22;3089;48.202;11.510;2023-06-10T15:53:52;25.20;98.50
6118;DHT22;3089;48.202;11.510;2023-06-10T15:56:20;25.10;99.30